createdAt,value
2017-01-26T00:00:00.293Z,54.46
2017-01-26T00:01:09.280Z,54.75
2017-01-26T00:02:18.280Z,54.94
2017-01-26T00:03:27.280Z,54.66
2017-01-26T00:04:36.267Z,55.04
2017-01-26T00:05:45.243Z,54.75
2017-01-26T00:06:54.234Z,54.75
2017-01-26T00:08:03.215Z,54.75
2017-01-26T00:09:12.226Z,54.85
2017-01-26T00:10:21.221Z,54.85
2017-01-26T00:11:30.216Z,55.42
2017-01-26T00:12:39.190Z,55.42
2017-01-26T00:13:48.175Z,55.3
2017-01-26T00:14:57.167Z,55.3
2017-01-26T00:16:06.159Z,55.4
2017-01-26T00:17:15.142Z,55.33
2017-01-26T00:18:24.117Z,55.3
2017-01-26T00:19:33.090Z,55.21
2017-01-26T00:20:42.086Z,55.68
2017-01-26T00:21:51.070Z,55.68
2017-01-26T00:23:00.063Z,55.4
2017-01-26T00:24:09.049Z,55.3
2017-01-26T00:25:18.032Z,55.11
2017-01-26T00:26:27.010Z,55.3
2017-01-26T00:27:35.996Z,55.58
2017-01-26T00:28:44.984Z,55.49
2017-01-26T00:29:53.960Z,55.58
2017-01-26T00:31:02.935Z,55.58
2017-01-26T00:32:11.969Z,55.68
2017-01-26T00:33:20.957Z,55.68
2017-01-26T00:34:29.945Z,56.07
2017-01-26T00:35:38.948Z,55.78
2017-01-26T00:36:47.924Z,55.87
2017-01-26T00:37:56.945Z,55.78
2017-01-26T00:39:05.938Z,55.97
2017-01-26T00:40:14.917Z,56.26
2017-01-26T00:41:23.899Z,56.26
2017-01-26T00:42:32.876Z,55.94
2017-01-26T00:43:41.866Z,55.85
2017-01-26T00:44:50.888Z,55.75
2017-01-26T00:45:59.875Z,55.75
2017-01-26T00:47:08.868Z,55.85
2017-01-26T00:48:17.862Z,55.85
2017-01-26T00:49:26.853Z,55.56
2017-01-26T00:50:35.834Z,56.32
2017-01-26T00:51:44.857Z,56.04
2017-01-26T00:52:53.831Z,55.56
2017-01-26T00:54:02.830Z,55.94
2017-01-26T00:55:11.801Z,56.52
2017-01-26T00:56:20.780Z,56.32
2017-01-26T00:57:29.782Z,55.85
2017-01-26T00:58:38.768Z,55.85
2017-01-26T00:59:47.739Z,55.75
2017-01-26T01:00:56.722Z,56.23
2017-01-26T01:02:05.720Z,55.75
2017-01-26T01:03:14.696Z,56.23
2017-01-26T01:04:23.690Z,55.85
2017-01-26T01:05:32.677Z,55.94
2017-01-26T01:06:41.647Z,56.32
2017-01-26T01:07:50.633Z,56.71
2017-01-26T01:08:59.617Z,56.23
2017-01-26T01:10:08.607Z,56.3
2017-01-26T01:11:17.597Z,56.23
2017-01-26T01:12:26.586Z,56.13
2017-01-26T01:13:35.569Z,56.61
2017-01-26T01:14:44.555Z,57.16
2017-01-26T01:15:53.547Z,56.39
2017-01-26T01:17:02.522Z,56.68
2017-01-26T01:18:11.509Z,56.59
2017-01-26T01:19:20.495Z,57.06
2017-01-26T01:20:29.476Z,56.68
2017-01-26T01:21:38.463Z,56.49
2017-01-26T01:22:47.454Z,56.59
2017-01-26T01:23:56.439Z,56.97
2017-01-26T01:25:05.451Z,56.49
2017-01-26T01:26:14.430Z,56.59
2017-01-26T01:27:23.419Z,56.2
2017-01-26T01:28:32.402Z,56.2
2017-01-26T01:29:41.439Z,55.85
2017-01-26T01:30:50.419Z,56.2
2017-01-26T01:31:59.424Z,56.3
2017-01-26T01:33:08.435Z,56.2
2017-01-26T01:34:17.407Z,56.3
2017-01-26T01:35:26.393Z,56.1
2017-01-26T01:36:35.368Z,55.91
2017-01-26T01:37:44.354Z,56.3
2017-01-26T01:38:53.334Z,56.49
2017-01-26T01:40:02.332Z,56.77
2017-01-26T01:41:11.313Z,56.49
2017-01-26T01:42:20.288Z,56.39
2017-01-26T01:43:29.275Z,56.49
2017-01-26T01:44:38.261Z,56.97
2017-01-26T01:45:47.227Z,56.87
2017-01-26T01:46:56.215Z,56.59
2017-01-26T01:48:05.192Z,56.49
2017-01-26T01:49:14.201Z,56.59
2017-01-26T01:50:23.175Z,57.06
2017-01-26T01:51:32.154Z,56.97
2017-01-26T01:52:41.138Z,56.87
2017-01-26T01:53:50.134Z,56.65
2017-01-26T01:54:59.116Z,56.75
2017-01-26T01:56:08.107Z,57.06
2017-01-26T01:57:17.095Z,57.04
2017-01-26T01:58:26.075Z,56.77
2017-01-26T01:59:35.090Z,56.97
2017-01-26T02:00:44.075Z,56.75
2017-01-26T02:01:53.050Z,57.06
2017-01-26T02:03:02.047Z,57.04
2017-01-26T02:04:11.036Z,56.77
2017-01-26T02:05:20.029Z,56.97
2017-01-26T02:06:29.010Z,56.94
2017-01-26T02:07:38.002Z,57.04
2017-01-26T02:08:46.981Z,56.94
2017-01-26T02:09:55.954Z,57.16
2017-01-26T02:11:04.945Z,56.59
2017-01-26T02:12:13.933Z,56.87
2017-01-26T02:13:22.930Z,56.56
2017-01-26T02:14:31.929Z,56.84
2017-01-26T02:15:40.913Z,56.65
2017-01-26T02:16:49.889Z,56.84
2017-01-26T02:17:58.876Z,57.13
2017-01-26T02:19:07.869Z,56.59
2017-01-26T02:20:16.841Z,56.94
2017-01-26T02:21:25.817Z,56.94
2017-01-26T02:22:34.803Z,56.94
2017-01-26T02:23:43.784Z,56.75
2017-01-26T02:24:52.797Z,56.65
2017-01-26T02:26:01.782Z,57.32
2017-01-26T02:27:10.764Z,57.51
2017-01-26T02:28:19.741Z,57.42
2017-01-26T02:29:28.726Z,56.94
2017-01-26T02:30:37.708Z,56.84
2017-01-26T02:31:46.725Z,56.65
2017-01-26T02:32:56.197Z,56.84
2017-01-26T02:34:05.164Z,57.04
2017-01-26T02:35:14.160Z,56.75
2017-01-26T02:36:23.151Z,56.84
2017-01-26T02:37:32.138Z,56.17
2017-01-26T02:38:41.118Z,56.56
2017-01-26T02:39:56.349Z,57.04
2017-01-26T02:41:05.307Z,56.75
2017-01-26T02:42:14.314Z,56.94
2017-01-26T02:43:23.293Z,56.94
2017-01-26T02:44:32.285Z,57.8
2017-01-26T02:45:41.293Z,57.7
2017-01-26T02:46:50.268Z,57.51
2017-01-26T02:47:59.264Z,57.61
2017-01-26T02:49:08.291Z,57.51
2017-01-26T02:50:17.279Z,57.51
2017-01-26T02:51:26.260Z,57.48
2017-01-26T02:52:35.239Z,57.58
2017-01-26T02:53:44.219Z,57.2
2017-01-26T02:54:53.234Z,57.58
2017-01-26T02:56:02.233Z,57.48
2017-01-26T02:57:11.232Z,57.39
2017-01-26T02:58:20.216Z,57.87
2017-01-26T02:59:29.206Z,57.97
2017-01-26T03:00:38.612Z,57.68
2017-01-26T03:01:47.593Z,57.58
2017-01-26T03:02:56.570Z,57.77
2017-01-26T03:04:05.546Z,57.58
2017-01-26T03:05:14.528Z,57.58
2017-01-26T03:06:23.525Z,57.58
2017-01-26T03:07:32.505Z,57.58
2017-01-26T03:08:41.834Z,57.48
2017-01-26T03:09:50.826Z,57.77
2017-01-26T03:10:59.805Z,57.77
2017-01-26T03:12:08.792Z,57.39
2017-01-26T03:13:17.777Z,57.48
2017-01-26T03:14:26.755Z,57.77
2017-01-26T03:15:35.735Z,57.48
2017-01-26T03:16:44.712Z,57.39
2017-01-26T03:17:53.797Z,57.48
2017-01-26T03:19:02.781Z,57.68
2017-01-26T03:20:11.758Z,57.58
2017-01-26T03:21:20.735Z,57.1
2017-01-26T03:22:29.724Z,57.1
2017-01-26T03:23:38.717Z,57.2
2017-01-26T03:24:47.699Z,57.58
2017-01-26T03:25:56.686Z,57.87
2017-01-26T03:27:05.659Z,58.06
2017-01-26T03:28:14.647Z,58.25
2017-01-26T03:29:23.626Z,57.97
2017-01-26T03:30:32.619Z,57.97
2017-01-26T03:31:41.594Z,58.03
2017-01-26T03:32:50.572Z,57.68
2017-01-26T03:33:59.548Z,57.58
2017-01-26T03:35:08.529Z,57.68
2017-01-26T03:36:17.561Z,57.97
2017-01-26T03:37:26.543Z,58.32
2017-01-26T03:38:35.531Z,58.32
2017-01-26T03:39:44.512Z,58.44
2017-01-26T03:40:53.484Z,58.22
2017-01-26T03:42:02.519Z,58.54
2017-01-26T03:43:11.495Z,58.06
2017-01-26T03:44:20.486Z,58.25
2017-01-26T03:45:29.471Z,57.65
2017-01-26T03:46:38.439Z,57.97
2017-01-26T03:47:47.425Z,58.32
2017-01-26T03:48:56.416Z,58.32
2017-01-26T03:50:05.397Z,58.12
2017-01-26T03:51:14.375Z,58.41
2017-01-26T03:52:23.360Z,58.51
2017-01-26T03:53:32.340Z,58.03
2017-01-26T03:54:41.323Z,57.75
2017-01-26T03:55:50.314Z,57.84
2017-01-26T03:56:59.292Z,57.75
2017-01-26T03:58:08.288Z,57.84
2017-01-26T03:59:17.260Z,57.46
2017-01-26T04:00:26.234Z,57.48
2017-01-26T04:01:35.218Z,57.97
2017-01-26T04:02:44.205Z,58.51
2017-01-26T04:03:53.184Z,58.32
2017-01-26T04:05:02.173Z,58.22
2017-01-26T04:06:11.157Z,58.51
2017-01-26T04:07:20.133Z,58.41
2017-01-26T04:08:29.114Z,58.41
2017-01-26T04:09:38.106Z,58.32
2017-01-26T04:10:47.087Z,57.65
2017-01-26T04:11:56.475Z,58.22
2017-01-26T04:13:05.480Z,58.51
2017-01-26T04:14:14.478Z,58.12
2017-01-26T04:15:23.467Z,58.41
2017-01-26T04:16:32.456Z,58.12
2017-01-26T04:17:41.450Z,58.22
2017-01-26T04:18:50.431Z,58.41
2017-01-26T04:19:59.404Z,58.41
2017-01-26T04:21:08.379Z,58.22
2017-01-26T04:22:17.366Z,58.8
2017-01-26T04:23:26.350Z,58.41
2017-01-26T04:24:35.321Z,58.41
2017-01-26T04:25:44.304Z,58.32
2017-01-26T04:26:53.314Z,58.61
2017-01-26T04:28:02.299Z,58.98
2017-01-26T04:29:11.290Z,58.41
2017-01-26T04:30:20.270Z,58.32
2017-01-26T04:31:29.257Z,58.51
2017-01-26T04:32:38.285Z,58.8
2017-01-26T04:33:47.276Z,58.41
2017-01-26T04:34:56.259Z,58.61
2017-01-26T04:36:05.250Z,58.51
2017-01-26T04:37:14.301Z,58.7
2017-01-26T04:38:23.286Z,58.61
2017-01-26T04:39:32.270Z,58.51
2017-01-26T04:40:41.256Z,58.41
2017-01-26T04:41:50.228Z,58.41
2017-01-26T04:42:59.211Z,58.41
2017-01-26T04:44:08.200Z,58.41
2017-01-26T04:45:17.166Z,58.61
2017-01-26T04:46:26.139Z,58.12
2017-01-26T04:47:35.135Z,58.22
2017-01-26T04:48:44.144Z,57.93
2017-01-26T04:49:53.123Z,57.75
2017-01-26T04:51:02.096Z,58.22
2017-01-26T04:52:11.076Z,57.93
2017-01-26T04:53:20.059Z,58.32
2017-01-26T04:54:29.039Z,58.41
2017-01-26T04:55:38.021Z,58.32
2017-01-26T04:56:47.006Z,58.22
2017-01-26T04:57:55.989Z,58.03
2017-01-26T04:59:04.988Z,58.32
2017-01-26T05:00:13.965Z,57.84
2017-01-26T05:01:22.949Z,57.93
2017-01-26T05:02:31.943Z,58.03
2017-01-26T05:03:40.933Z,58.51
2017-01-26T05:04:49.913Z,58.22
2017-01-26T05:05:58.906Z,58.12
2017-01-26T05:07:07.931Z,58.41
2017-01-26T05:08:16.972Z,58.41
2017-01-26T05:09:25.961Z,58.32
2017-01-26T05:10:34.938Z,58.32
2017-01-26T05:11:43.920Z,58.32
2017-01-26T05:12:52.897Z,57.84
2017-01-26T05:14:01.881Z,57.9
2017-01-26T05:15:10.873Z,58.22
2017-01-26T05:16:19.855Z,57.9
2017-01-26T05:17:28.845Z,57.55
2017-01-26T05:18:37.825Z,57.75
2017-01-26T05:19:46.816Z,58.12
2017-01-26T05:20:55.802Z,57.75
2017-01-26T05:22:04.789Z,58.03
2017-01-26T05:23:13.786Z,58.51
2017-01-26T05:24:22.759Z,57.65
2017-01-26T05:25:31.739Z,57.84
2017-01-26T05:26:40.731Z,57.84
2017-01-26T05:27:49.710Z,57.93
2017-01-26T05:28:58.692Z,57.75
2017-01-26T05:30:07.685Z,57.46
2017-01-26T05:31:16.664Z,57.84
2017-01-26T05:32:25.637Z,57.84
2017-01-26T05:33:34.632Z,58.03
2017-01-26T05:34:43.702Z,57.93
2017-01-26T05:35:52.747Z,57.53
2017-01-26T05:37:01.730Z,57.62
2017-01-26T05:38:11.137Z,57.55
2017-01-26T05:39:20.116Z,57.81
2017-01-26T05:40:29.112Z,57.62
2017-01-26T05:41:38.092Z,57.93
2017-01-26T05:42:47.136Z,57.75
2017-01-26T05:43:56.132Z,57.65
2017-01-26T05:45:05.112Z,57.65
2017-01-26T05:46:14.082Z,57.36
2017-01-26T05:47:23.064Z,57.84
2017-01-26T05:48:32.039Z,57.9
2017-01-26T05:49:41.035Z,57.81
2017-01-26T05:50:50.026Z,57.9
2017-01-26T05:51:58.992Z,57.62
2017-01-26T05:53:07.970Z,57.93
2017-01-26T05:54:16.967Z,57.81
2017-01-26T05:55:25.947Z,57.81
2017-01-26T05:56:34.938Z,58.29
2017-01-26T05:57:43.923Z,57.71
2017-01-26T05:58:52.904Z,58.48
2017-01-26T06:00:01.879Z,58.48
2017-01-26T06:01:10.873Z,57.71
2017-01-26T06:02:19.848Z,58
2017-01-26T06:03:28.837Z,58.03
2017-01-26T06:04:37.810Z,57.81
2017-01-26T06:05:46.790Z,57.81
2017-01-26T06:06:55.793Z,58.1
2017-01-26T06:08:04.779Z,58.38
2017-01-26T06:09:14.869Z,59.15
2017-01-26T06:10:23.852Z,62.14
2017-01-26T06:11:32.859Z,65.81
2017-01-26T06:12:41.846Z,66.38
2017-01-26T06:13:50.827Z,66.51
2017-01-26T06:14:59.826Z,67.85
2017-01-26T06:16:08.832Z,65.65
2017-01-26T06:17:17.816Z,64.92
2017-01-26T06:18:26.797Z,64.05
2017-01-26T06:19:35.807Z,66.06
2017-01-26T06:20:44.790Z,66.16
2017-01-26T06:21:53.769Z,63.86
2017-01-26T06:23:02.780Z,64.05
2017-01-26T06:24:11.751Z,65.39
2017-01-26T06:25:20.739Z,66.64
2017-01-26T06:26:29.726Z,67.79
2017-01-26T06:27:38.699Z,68.3
2017-01-26T06:28:47.688Z,68.3
2017-01-26T06:29:56.679Z,69.17
2017-01-26T06:31:05.666Z,69.17
2017-01-26T06:32:14.645Z,69.26
2017-01-26T06:33:23.634Z,67.63
2017-01-26T06:34:32.617Z,69.26
2017-01-26T06:35:41.632Z,69.64
2017-01-26T06:36:50.611Z,69.54
2017-01-26T06:37:59.604Z,69.87
2017-01-26T06:39:08.583Z,69.74
2017-01-26T06:40:17.621Z,69.96
2017-01-26T06:41:26.607Z,70.54
2017-01-26T06:42:35.582Z,70.15
2017-01-26T06:43:44.560Z,69.87
2017-01-26T06:44:53.543Z,70.06
2017-01-26T06:46:02.526Z,69.87
2017-01-26T06:47:11.517Z,70.35
2017-01-26T06:48:20.496Z,70.25
2017-01-26T06:49:29.483Z,70.54
2017-01-26T06:50:38.454Z,70.15
2017-01-26T06:51:47.448Z,69.87
2017-01-26T06:52:56.422Z,69.48
2017-01-26T06:54:05.410Z,69.81
2017-01-26T06:55:14.393Z,70.15
2017-01-26T06:56:23.379Z,69.04
2017-01-26T06:57:32.361Z,69.81
2017-01-26T06:58:41.368Z,69.33
2017-01-26T06:59:50.345Z,69.33
2017-01-26T07:00:59.322Z,69.71
2017-01-26T07:02:08.308Z,69.71
2017-01-26T07:03:17.295Z,69.81
2017-01-26T07:04:26.271Z,69.23
2017-01-26T07:05:35.269Z,69.23
2017-01-26T07:06:44.250Z,69.42
2017-01-26T07:07:53.242Z,69.23
2017-01-26T07:09:02.226Z,69.23
2017-01-26T07:10:11.224Z,69.42
2017-01-26T07:11:20.196Z,69.33
2017-01-26T07:12:29.185Z,69.71
2017-01-26T07:13:38.165Z,69.23
2017-01-26T07:14:47.175Z,70.13
2017-01-26T07:15:56.159Z,69.84
2017-01-26T07:17:05.150Z,68.69
2017-01-26T07:18:14.176Z,69.84
2017-01-26T07:19:23.213Z,69.84
2017-01-26T07:20:32.201Z,69.46
2017-01-26T07:21:41.186Z,68.88
2017-01-26T07:22:50.170Z,68.88
2017-01-26T07:23:59.159Z,69.36
2017-01-26T07:25:08.134Z,68.79
2017-01-26T07:26:17.128Z,68.5
2017-01-26T07:27:26.120Z,68.59
2017-01-26T07:28:35.107Z,68.98
2017-01-26T07:29:44.165Z,69.26
2017-01-26T07:30:53.206Z,70.42
2017-01-26T07:32:02.694Z,70.8
2017-01-26T07:33:11.689Z,71.28
2017-01-26T07:34:20.666Z,70.36
2017-01-26T07:35:29.648Z,69.01
2017-01-26T07:36:38.631Z,69.84
2017-01-26T07:37:47.699Z,70.55
2017-01-26T07:38:56.675Z,69.68
2017-01-26T07:40:05.662Z,69.3
2017-01-26T07:41:14.659Z,69.78
2017-01-26T07:42:23.638Z,69.4
2017-01-26T07:43:32.622Z,69.01
2017-01-26T07:44:41.616Z,72.08
2017-01-26T07:45:50.621Z,71.51
2017-01-26T07:46:59.639Z,71.41
2017-01-26T07:48:08.627Z,69.87
2017-01-26T07:49:17.611Z,70.64
2017-01-26T07:50:26.585Z,69.2
2017-01-26T07:51:35.591Z,71.41
2017-01-26T07:52:44.576Z,71.06
2017-01-26T07:53:53.589Z,70.87
2017-01-26T07:55:02.564Z,70.43
2017-01-26T07:56:11.559Z,71.1
2017-01-26T07:57:20.544Z,70.81
2017-01-26T07:58:29.532Z,70.81
2017-01-26T07:59:38.528Z,71.67
2017-01-26T08:00:47.518Z,71.52
2017-01-26T08:01:56.497Z,70.75
2017-01-26T08:03:05.476Z,71.52
2017-01-26T08:04:14.470Z,71.23
2017-01-26T08:05:23.470Z,70.65
2017-01-26T08:06:32.455Z,71.23
2017-01-26T08:07:41.441Z,71.23
2017-01-26T08:08:50.422Z,71.71
2017-01-26T08:09:59.411Z,71.52
2017-01-26T08:11:08.401Z,71.61
2017-01-26T08:12:17.378Z,71.61
2017-01-26T08:13:26.363Z,72.03
2017-01-26T08:14:35.335Z,71.33
2017-01-26T08:15:44.325Z,71.94
2017-01-26T08:16:53.328Z,71.88
2017-01-26T08:18:02.315Z,71.69
2017-01-26T08:19:11.299Z,71.97
2017-01-26T08:20:20.700Z,71.4
2017-01-26T08:21:29.696Z,70.5
2017-01-26T08:22:39.103Z,71.36
2017-01-26T08:23:48.086Z,71.46
2017-01-26T08:24:57.067Z,71.08
2017-01-26T08:26:06.463Z,71.46
2017-01-26T08:27:15.458Z,71.55
2017-01-26T08:28:24.442Z,71.17
2017-01-26T08:29:33.425Z,71.42
2017-01-26T08:30:42.424Z,71.36
2017-01-26T08:31:51.424Z,71.26
2017-01-26T08:33:00.432Z,71.23
2017-01-26T08:34:09.418Z,70.59
2017-01-26T08:35:18.399Z,70.65
2017-01-26T08:36:27.384Z,70.59
2017-01-26T08:37:36.386Z,71.52
2017-01-26T08:38:45.381Z,70.17
2017-01-26T08:39:54.364Z,70.68
2017-01-26T08:41:03.344Z,70.5
2017-01-26T08:42:12.333Z,70.3
2017-01-26T08:43:21.314Z,69.63
2017-01-26T08:44:30.306Z,70.11
2017-01-26T08:45:39.286Z,70.21
2017-01-26T08:46:48.282Z,70.21
2017-01-26T08:47:57.261Z,70.5
2017-01-26T08:49:06.255Z,70.88
2017-01-26T08:50:15.245Z,70.59
2017-01-26T08:51:24.233Z,70.5
2017-01-26T08:52:33.228Z,70.59
2017-01-26T08:53:42.215Z,70.4
2017-01-26T08:54:51.199Z,69.92
2017-01-26T08:56:00.182Z,71.08
2017-01-26T08:57:09.176Z,70.5
2017-01-26T08:58:18.162Z,69.73
2017-01-26T08:59:27.148Z,70.68
2017-01-26T09:00:36.157Z,70.01
2017-01-26T09:01:45.129Z,70.11
2017-01-26T09:02:54.125Z,70.59
2017-01-26T09:04:03.120Z,70.4
2017-01-26T09:05:12.105Z,70.4
2017-01-26T09:06:21.092Z,70.4
2017-01-26T09:07:30.089Z,70.5
2017-01-26T09:08:39.084Z,70.68
2017-01-26T09:09:48.080Z,70.59
2017-01-26T09:10:57.072Z,70.3
2017-01-26T09:12:06.062Z,70.59
2017-01-26T09:13:15.184Z,70.11
2017-01-26T09:14:26.973Z,70.5
2017-01-26T09:15:35.976Z,70.5
2017-01-26T09:16:44.981Z,71.55
2017-01-26T09:17:53.962Z,69.95
2017-01-26T09:19:02.947Z,70.34
2017-01-26T09:20:11.936Z,70.21
2017-01-26T09:21:20.934Z,70.05
2017-01-26T09:22:29.919Z,69.53
2017-01-26T09:23:38.900Z,69.95
2017-01-26T09:24:47.893Z,71.08
2017-01-26T09:25:56.876Z,70.82
2017-01-26T09:27:05.857Z,70.92
2017-01-26T09:28:14.855Z,69.28
2017-01-26T09:29:23.837Z,70.34
2017-01-26T09:30:32.824Z,70.62
2017-01-26T09:31:41.799Z,70.15
2017-01-26T09:32:50.786Z,70.24
2017-01-26T09:33:59.803Z,70.59
2017-01-26T09:35:08.816Z,70.43
2017-01-26T09:36:17.791Z,71.59
2017-01-26T09:37:26.784Z,71.49
2017-01-26T09:38:35.771Z,70.82
2017-01-26T09:39:44.758Z,70.82
2017-01-26T09:40:53.763Z,71.01
2017-01-26T09:42:02.757Z,70.82
2017-01-26T09:43:11.755Z,70.72
2017-01-26T09:44:20.757Z,71.11
2017-01-26T09:45:29.736Z,71.3
2017-01-26T09:46:38.716Z,70.72
2017-01-26T09:47:47.709Z,71.4
2017-01-26T09:48:56.703Z,70.92
2017-01-26T09:50:05.689Z,70.82
2017-01-26T09:51:14.683Z,69.85
2017-01-26T09:52:23.669Z,71.3
2017-01-26T09:53:32.646Z,70.15
2017-01-26T09:54:41.663Z,69.28
2017-01-26T09:55:50.655Z,68.41
2017-01-26T09:56:59.638Z,69.47
2017-01-26T09:58:08.627Z,70.05
2017-01-26T09:59:17.616Z,70.15
2017-01-26T10:00:26.636Z,69.67
2017-01-26T10:01:35.636Z,69.85
2017-01-26T10:02:44.632Z,69.18
2017-01-26T10:03:53.685Z,70.62
2017-01-26T10:05:02.668Z,70.53
2017-01-26T10:06:11.665Z,70.24
2017-01-26T10:07:20.654Z,71.2
2017-01-26T10:08:29.675Z,70.66
2017-01-26T10:09:38.697Z,70.56
2017-01-26T10:10:47.693Z,70.62
2017-01-26T10:11:56.689Z,71.78
2017-01-26T10:13:05.673Z,71.3
2017-01-26T10:14:14.657Z,70.92
2017-01-26T10:15:23.635Z,70.62
2017-01-26T10:16:32.632Z,71.4
2017-01-26T10:17:41.634Z,71.59
2017-01-26T10:18:50.616Z,71.78
2017-01-26T10:19:59.608Z,71.3
2017-01-26T10:21:08.607Z,71.49
2017-01-26T10:22:17.594Z,71.2
2017-01-26T10:23:26.588Z,71.4
2017-01-26T10:24:35.586Z,71.59
2017-01-26T10:25:44.604Z,71.2
2017-01-26T10:26:53.579Z,71.3
2017-01-26T10:28:02.577Z,71.4
2017-01-26T10:29:11.553Z,71.2
2017-01-26T10:30:20.555Z,71.3
2017-01-26T10:31:29.532Z,71.3
2017-01-26T10:32:38.520Z,71.3
2017-01-26T10:33:47.495Z,71.4
2017-01-26T10:34:56.490Z,71.11
2017-01-26T10:36:05.508Z,70.92
2017-01-26T10:37:14.502Z,71.59
2017-01-26T10:38:23.485Z,70.62
2017-01-26T10:39:32.486Z,70.62
2017-01-26T10:40:41.474Z,70.34
2017-01-26T10:41:50.451Z,70.62
2017-01-26T10:42:59.435Z,69.67
2017-01-26T10:44:08.430Z,70.15
2017-01-26T10:45:17.443Z,69.85
2017-01-26T10:46:26.842Z,69.85
2017-01-26T10:47:35.843Z,69.76
2017-01-26T10:48:44.835Z,69.57
2017-01-26T10:49:53.828Z,69.38
2017-01-26T10:51:02.818Z,69.28
2017-01-26T10:52:11.793Z,69.09
2017-01-26T10:53:20.784Z,69.28
2017-01-26T10:54:29.796Z,68.84
2017-01-26T10:55:38.772Z,69.09
2017-01-26T10:56:47.768Z,68.9
2017-01-26T10:57:56.750Z,69.09
2017-01-26T10:59:05.736Z,69.18
2017-01-26T11:00:14.726Z,68.99
2017-01-26T11:01:23.733Z,69.28
2017-01-26T11:02:32.743Z,69.18
2017-01-26T11:03:41.722Z,69.09
2017-01-26T11:04:50.713Z,69.38
2017-01-26T11:05:59.692Z,69.38
2017-01-26T11:07:08.816Z,69.38
2017-01-26T11:08:17.845Z,69.28
2017-01-26T11:09:26.834Z,69.67
2017-01-26T11:10:35.808Z,69.67
2017-01-26T11:11:44.799Z,69.47
2017-01-26T11:12:53.782Z,69.38
2017-01-26T11:14:02.771Z,69.18
2017-01-26T11:15:11.764Z,69.57
2017-01-26T11:16:20.733Z,69.38
2017-01-26T11:17:29.729Z,69.57
2017-01-26T11:18:38.733Z,69.67
2017-01-26T11:19:47.729Z,69.67
2017-01-26T11:20:56.715Z,69.28
2017-01-26T11:22:05.696Z,69.57
2017-01-26T11:23:14.689Z,69.57
2017-01-26T11:24:23.689Z,69.47
2017-01-26T11:25:32.674Z,70.05
2017-01-26T11:26:41.654Z,69.95
2017-01-26T11:27:50.648Z,70.24
2017-01-26T11:28:59.640Z,70.05
2017-01-26T11:30:08.616Z,69.95
2017-01-26T11:31:17.593Z,69.95
2017-01-26T11:32:26.590Z,70.05
2017-01-26T11:33:35.575Z,69.95
2017-01-26T11:34:44.570Z,69.76
2017-01-26T11:35:53.555Z,70.05
2017-01-26T11:37:02.538Z,69.76
2017-01-26T11:38:11.902Z,70.15
2017-01-26T11:39:50.786Z,70.05
2017-01-26T11:40:59.764Z,69.95
2017-01-26T11:42:08.739Z,69.95
2017-01-26T11:43:17.722Z,70.05
2017-01-26T11:44:26.709Z,69.95
2017-01-26T11:45:35.688Z,69.57
2017-01-26T11:46:44.684Z,69.57
2017-01-26T11:47:53.667Z,69.47
2017-01-26T11:49:02.656Z,69.57
2017-01-26T11:50:11.643Z,69.95
2017-01-26T11:51:20.636Z,69.47
2017-01-26T11:52:29.652Z,70.05
2017-01-26T11:53:38.646Z,69.57
2017-01-26T11:54:47.643Z,69.95
2017-01-26T11:55:56.631Z,69.57
2017-01-26T11:57:05.620Z,70.05
2017-01-26T11:58:14.600Z,69.95
2017-01-26T11:59:23.580Z,70.53
2017-01-26T12:00:32.930Z,70.11
